This is the latest recevied weather packets stored in our database for station/object HS8KF-10. If no packets are shown the sender has not sent any weather packets the latest 10 day(s).
| Time | Temp. | Humidity | Pressure | Rain* | Wind** | Luminosity | Snow |
|---|---|---|---|---|---|---|---|
| 1777535850 | 37.22° C | 99% | 659 hPa | - | - | 0 W/m² | - |
| 1777534025 | 36.11° C | 99% | 659 hPa | - | - | 0 W/m² | - |
| 1777532022 | 37.22° C | 99% | 659 hPa | - | - | 0 W/m² | - |
| 1777530196 | 36.67° C | 99% | 659 hPa | - | - | 0 W/m² | - |
| 1777528370 | 37.22° C | 99% | 660 hPa | - | - | 0 W/m² | - |
| 1777526544 | 36.11° C | 99% | 659 hPa | - | - | 0 W/m² | - |
| 1777524718 | 34.44° C | 99% | 657 hPa | - | - | 0 W/m² | - |
| 1777510015 | 27.78° C | 99% | 649 hPa | - | - | 0 W/m² | - |
| 1777509496 | 27.22° C | 99% | 649 hPa | - | - | 0 W/m² | - |
| 1777508849 | 0° C | 100% | 0 hPa | - | - | 0 W/m² | - |
| 1777506311 | 27.22° C | 99% | 649 hPa | - | - | 0 W/m² | - |
| 1777505086 | 0° C | 100% | 0 hPa | - | - | 0 W/m² | - |
| 1777504460 | 0° C | 100% | 0 hPa | - | - | 0 W/m² | - |
| 1777468501 | 32.78° C | 99% | 655 hPa | - | - | 0 W/m² | - |
| 1777467601 | 32.78° C | 99% | 655 hPa | - | - | 0 W/m² | - |
| 1777466940 | 32.78° C | 99% | 655 hPa | - | - | 0 W/m² | - |
| 1777466516 | 32.78° C | 99% | 655 hPa | - | - | 0 W/m² | - |
| 1777465714 | 33.33° C | 99% | 655 hPa | - | - | 0 W/m² | - |
| 1777464900 | 33.89° C | 99% | 656 hPa | - | - | 0 W/m² | - |
| 1777464476 | 33.89° C | 99% | 656 hPa | - | - | 0 W/m² | - |
| 1777464180 | 33.89° C | 99% | 656 hPa | - | - | 0 W/m² | - |
| 1777463886 | 33.33° C | 99% | 656 hPa | - | - | 0 W/m² | - |
| 1777459563 | 35° C | 99% | 657 hPa | - | - | 0 W/m² | - |
| 1777459134 | 35° C | 99% | 657 hPa | - | - | 0 W/m² | - |
| 1777458839 | 35° C | 99% | 657 hPa | - | - | 0 W/m² | - |
* Rain since midnight (hover to see other rain measurements)
** Current wind speed in m/s (hover to see current wind gust speed)